Time;durP1;ratioP1;P1;durP2;ratioP2;P2;SDS_P1;SDS_P2;PMS_P1;PMS_P2;Temp;Humidity;BMP_temperature;BMP_pressure;BME280_temperature;BME280_humidity;BME280_pressure;Samples;Min_cycle;Max_cycle;Signal;HPM_P1;HPM_P2
2023/02/06 00:01:26;;;;;;;0.10;0.10;;;;;;;-0.93;84.12;103165.28;4916710;29;20316;-77
2023/02/06 00:04:05;;;;;;;0.00;0.00;;;;;;;-0.98;83.73;103167.50;4921669;29;20025;-78
2023/02/06 00:06:56;;;;;;;0.08;0.08;;;;;;;-1.09;83.89;103154.03;4905973;29;20028;-75
2023/02/06 00:09:24;;;;;;;0.00;0.00;;;;;;;-1.19;83.61;103145.00;4901867;29;20024;-74
2023/02/06 00:11:51;;;;;;;0.00;0.00;;;;;;;-1.19;84.57;103153.06;4904778;29;20032;-76
2023/02/06 00:14:17;;;;;;;0.00;0.00;;;;;;;-1.23;84.85;103158.69;4902190;29;20189;-77
2023/02/06 00:16:45;;;;;;;0.00;0.00;;;;;;;-1.08;83.72;103185.28;4899128;29;20040;-78
2023/02/06 00:19:15;;;;;;;0.00;0.00;;;;;;;-1.19;84.69;103180.75;4867261;29;20418;-76
2023/02/06 00:21:41;;;;;;;0.00;0.00;;;;;;;-1.20;83.91;103180.88;4900978;29;20040;-79
2023/02/06 00:24:07;;;;;;;0.00;0.00;;;;;;;-1.24;84.66;103173.06;4882684;29;20032;-81
2023/02/06 00:26:35;;;;;;;0.10;0.10;;;;;;;-1.30;84.81;103170.88;4883982;29;20044;-79
2023/02/06 00:29:01;;;;;;;0.00;0.00;;;;;;;-1.40;84.62;103177.94;4897206;29;20028;-79
2023/02/06 00:31:26;;;;;;;0.00;0.00;;;;;;;-1.39;83.80;103181.47;4888457;29;20030;-80
2023/02/06 00:34:01;;;;;;;0.00;0.00;;;;;;;-1.44;84.85;103184.53;4879766;29;20624;-79
2023/02/06 00:36:36;;;;;;;0.10;0.10;;;;;;;-1.37;84.81;103182.19;4911688;29;20032;-79
2023/02/06 00:39:04;;;;;;;;;;;;;;;-1.33;84.01;103205.16;4900852;29;20028;-81
2023/02/06 00:41:29;;;;;;;0.00;0.00;;;;;;;-1.34;85.20;103200.75;4900064;29;19922;-80
2023/02/06 00:43:59;;;;;;;0.00;0.00;;;;;;;-1.36;85.42;103190.13;4897648;29;20035;-79
2023/02/06 00:46:37;;;;;;;0.10;0.10;;;;;;;-1.46;84.52;103170.34;4909195;29;20047;-79
2023/02/06 00:49:02;;;;;;;0.00;0.00;;;;;;;-1.35;83.97;103181.09;4904340;29;20035;-79
2023/02/06 00:51:44;;;;;;;;;;;;;;;;;;;;;
2023/02/06 00:54:09;;;;;;;0.00;0.00;;;;;;;-1.47;85.02;103165.97;4905010;29;20490;-79
2023/02/06 00:56:37;;;;;;;0.10;0.10;;;;;;;-1.38;84.40;103180.50;4906263;29;20067;-79
2023/02/06 00:59:03;;;;;;;0.10;0.10;;;;;;;-1.59;84.89;103141.78;4913402;29;20039;-79
2023/02/06 01:01:38;;;;;;;;;;;;;;;;;;;;;
2023/02/06 01:04:23;;;;;;;;;;;;;;;;;;;;;
2023/02/06 01:06:54;;;;;;;0.00;0.00;;;;;;;-1.72;85.22;103113.31;4905050;29;20111;-79
2023/02/06 01:09:20;;;;;;;0.00;0.00;;;;;;;-1.68;84.90;103126.41;4898908;29;20025;-79
2023/02/06 01:11:47;;;;;;;0.00;0.00;;;;;;;-1.54;86.03;103156.69;4910498;29;20088;-78
2023/02/06 01:14:14;;;;;;;0.00;0.00;;;;;;;-1.61;85.27;103148.25;4898545;29;20224;-81
2023/02/06 01:16:40;;;;;;;0.00;0.00;;;;;;;-1.62;85.58;103144.72;4918232;29;20091;-80
2023/02/06 01:19:06;;;;;;;0.00;0.00;;;;;;;-1.66;86.03;103140.53;4871334;29;20032;-81
2023/02/06 01:21:49;;;;;;;0.10;0.10;;;;;;;-1.78;85.13;103130.78;4904252;29;20024;-82
2023/02/06 01:24:14;;;;;;;0.00;0.00;;;;;;;-1.92;86.37;103106.84;4904375;29;20106;-80
2023/02/06 01:26:49;;;;;;;0.00;0.00;;;;;;;-1.74;85.85;103128.69;4904259;29;20115;-79
2023/02/06 01:29:19;;;;;;;0.00;0.00;;;;;;;-1.66;86.25;103145.06;4910908;29;20035;-79
2023/02/06 01:31:45;;;;;;;0.00;0.00;;;;;;;-1.65;85.98;103128.84;4902923;29;20032;-78
2023/02/06 01:34:18;;;;;;;0.00;0.00;;;;;;;-1.44;85.27;103155.00;4896010;29;20032;-79
2023/02/06 01:36:50;;;;;;;0.00;0.00;;;;;;;-1.49;85.85;103138.38;4902187;29;20817;-78
2023/02/06 01:39:38;;;;;;;0.10;0.10;;;;;;;-1.31;86.45;103150.38;4894307;29;20020;-79
2023/02/06 01:42:13;;;;;;;0.10;0.10;;;;;;;-1.49;85.33;103120.47;4876202;29;20036;-79
2023/02/06 01:44:38;;;;;;;;;;;;;;;-1.29;85.12;103159.13;4901043;29;20035;-77
2023/02/06 01:47:04;;;;;;;0.00;0.00;;;;;;;-1.47;85.78;103134.59;4893370;29;19919;-78
2023/02/06 01:49:40;;;;;;;0.03;0.03;;;;;;;-1.31;86.34;103149.53;4905120;29;20174;-80
2023/02/06 01:52:16;;;;;;;0.10;0.10;;;;;;;-1.32;85.50;103156.69;4897515;29;21329;-79
2023/02/06 01:54:46;;;;;;;0.00;0.00;;;;;;;-1.54;85.64;103128.00;4918227;29;20039;-79
2023/02/06 01:57:12;;;;;;;0.10;0.10;;;;;;;-1.38;86.11;103146.44;4894265;29;22117;-79
2023/02/06 01:59:46;;;;;;;0.00;0.00;;;;;;;-1.44;85.71;103117.41;4894892;29;20057;-80
2023/02/06 02:02:12;;;;;;;0.00;0.00;;;;;;;-1.33;86.32;103127.28;4897104;29;22038;-80
2023/02/06 02:04:38;;;;;;;0.00;0.00;;;;;;;-1.19;86.03;103147.69;4903809;29;20096;-81
2023/02/06 02:07:20;;;;;;;0.00;0.00;;;;;;;-1.26;85.60;103125.84;4912153;29;20446;-79
2023/02/06 02:09:48;;;;;;;0.00;0.00;;;;;;;-1.24;86.12;103124.75;4912581;29;20032;-80
2023/02/06 02:12:14;;;;;;;0.10;0.10;;;;;;;-1.00;86.28;103161.38;4903876;29;20410;-80
2023/02/06 02:14:42;;;;;;;0.00;0.00;;;;;;;-1.05;85.63;103139.41;4914555;29;20046;-78
2023/02/06 02:17:10;;;;;;;0.00;0.00;;;;;;;-0.92;85.73;103158.94;4918170;29;20479;-78
2023/02/06 02:19:45;;;;;;;0.00;0.00;;;;;;;-0.86;85.29;103154.91;4908329;29;20048;-80
2023/02/06 02:22:17;;;;;;;;;;;;;;;-0.83;85.35;103146.59;4904388;29;20029;-78
2023/02/06 02:24:54;;;;;;;0.00;0.00;;;;;;;-0.99;85.67;103119.22;4896040;29;19919;-78
2023/02/06 02:28:04;;;;;;;0.10;0.10;;;;;;;-0.83;85.72;103148.41;4912608;29;20028;-79
2023/02/06 02:30:42;;;;;;;;;;;;;;;;;;;;;
2023/02/06 02:36:37;;;;;;;;;;;;;;;;;;;;;
2023/02/06 02:39:18;;;;;;;0.10;0.10;;;;;;;-0.74;85.84;103136.94;4913393;29;20191;-79
2023/02/06 02:42:19;;;;;;;0.10;0.10;;;;;;;-0.84;84.85;103114.47;4902514;29;20042;-80
2023/02/06 02:48:28;;;;;;;0.00;0.00;;;;;;;-0.76;84.88;103125.44;4914554;29;20142;-76
2023/02/06 02:50:58;;;;;;;0.00;0.00;;;;;;;-0.99;84.58;103085.19;4902703;29;20084;-76
2023/02/06 02:53:25;;;;;;;0.00;0.00;;;;;;;-0.85;84.53;103085.88;4916473;29;20039;-75
2023/02/06 02:55:53;;;;;;;0.10;0.10;;;;;;;-0.88;84.62;103077.09;4903101;29;20099;-76
2023/02/06 02:58:29;;;;;;;0.10;0.10;;;;;;;-0.57;85.34;103106.84;4902996;29;20056;-76
2023/02/06 03:01:11;;;;;;;0.00;0.00;;;;;;;-0.60;84.48;103085.59;4915815;29;20033;-75
2023/02/06 03:03:48;;;;;;;0.00;0.00;;;;;;;-0.38;85.14;103097.22;4931599;23;20110;-77
2023/02/06 03:06:33;;;;;;;0.00;0.00;;;;;;;-0.32;84.79;103099.44;4897225;29;20068;-78
2023/02/06 03:09:27;;;;;;;0.00;0.00;;;;;;;-0.27;85.28;103102.56;4880940;29;20036;-77
2023/02/06 03:12:16;;;;;;;0.00;0.00;;;;;;;-0.46;85.03;103075.53;4877289;29;20036;-79
2023/02/06 03:14:57;;;;;;;0.10;0.10;;;;;;;-0.28;84.75;103098.16;4898516;29;20115;-77
2023/02/06 03:17:42;;;;;;;;;;;;;;;;;;;;;
2023/02/06 03:20:13;;;;;;;0.00;0.00;;;;;;;-0.26;85.27;103073.84;4891376;29;20595;-77
2023/02/06 03:22:43;;;;;;;0.00;0.00;;;;;;;-0.32;84.52;103064.47;4895605;29;20081;-77
2023/02/06 03:25:15;;;;;;;0.00;0.00;;;;;;;-0.34;85.17;103052.97;4887409;29;20039;-78
2023/02/06 03:27:45;;;;;;;0.00;0.00;;;;;;;-0.26;84.78;103061.25;4895976;29;20036;-76
2023/02/06 03:30:13;;;;;;;0.00;0.00;;;;;;;-0.25;85.19;103060.28;4878183;29;20536;-77
2023/02/06 03:33:00;;;;;;;0.00;0.00;;;;;;;-0.22;84.74;103067.22;4895159;29;20045;-77
2023/02/06 03:35:30;;;;;;;0.00;0.00;;;;;;;-0.07;85.67;103091.97;4874196;29;20106;-77
2023/02/06 03:37:58;;;;;;;0.00;0.00;;;;;;;-0.21;85.11;103069.78;4894214;29;20029;-78
2023/02/06 03:40:26;;;;;;;0.00;0.00;;;;;;;-0.30;85.29;103065.19;4883340;29;20036;-77
2023/02/06 03:42:57;;;;;;;0.00;0.00;;;;;;;-0.34;84.86;103062.88;4884870;29;20428;-77
2023/02/06 03:45:43;;;;;;;;;;;;;;;;;;;;;
2023/02/06 03:48:13;;;;;;;0.10;0.10;;;;;;;-0.40;85.65;103056.19;4889177;29;20031;-75
2023/02/06 03:50:44;;;;;;;0.00;0.00;;;;;;;-0.30;85.48;103065.19;4871114;29;20031;-77
2023/02/06 03:53:21;;;;;;;0.00;0.00;;;;;;;-0.22;85.71;103086.91;4896024;29;20038;-78
2023/02/06 03:55:51;;;;;;;0.05;0.05;;;;;;;-0.26;84.89;103071.16;4894150;29;20029;-78
2023/02/06 03:58:16;;;;;;;0.10;0.10;;;;;;;-0.36;84.96;103039.66;4889581;29;20035;-76
2023/02/06 04:00:46;;;;;;;0.00;0.00;;;;;;;-0.15;84.77;103062.19;4895244;29;20135;-76
2023/02/06 04:03:16;;;;;;;0.00;0.00;;;;;;;-0.14;85.18;103047.75;4881984;29;20083;-76
2023/02/06 04:05:43;;;;;;;0.10;0.10;;;;;;;-0.21;84.69;103032.13;4872490;29;20044;-77
2023/02/06 04:08:11;;;;;;;0.00;0.00;;;;;;;-0.14;84.72;103031.63;4884315;29;20380;-76
2023/02/06 04:10:36;;;;;;;0.00;0.00;;;;;;;-0.09;84.88;103030.25;4891840;29;20027;-77
2023/02/06 04:13:02;;;;;;;0.00;0.00;;;;;;;-0.10;84.98;103043.78;4879981;29;20032;-75
2023/02/06 04:15:27;;;;;;;0.00;0.00;;;;;;;0.03;85.06;103073.19;4876377;29;20127;-77
2023/02/06 04:17:56;;;;;;;0.10;0.10;;;;;;;-0.12;84.94;103049.31;4894945;29;20037;-76
2023/02/06 04:20:23;;;;;;;0.10;0.10;;;;;;;-0.08;84.60;103042.69;4880440;29;20038;-77
2023/02/06 04:22:49;;;;;;;0.10;0.10;;;;;;;-0.10;84.53;103033.91;4883925;29;20036;-76
2023/02/06 04:25:17;;;;;;;0.00;0.00;;;;;;;0.02;84.46;103041.91;4872378;29;20037;-76
2023/02/06 04:27:43;;;;;;;0.00;0.00;;;;;;;-0.02;84.81;103030.56;4858541;29;20060;-77
2023/02/06 04:30:09;;;;;;;0.00;0.00;;;;;;;0.12;85.01;103046.38;4894013;29;20025;-75
2023/02/06 04:32:34;;;;;;;0.00;0.00;;;;;;;0.24;84.89;103057.06;4878952;29;20376;-76
2023/02/06 04:35:02;;;;;;;0.00;0.00;;;;;;;0.19;84.77;103029.69;4882314;29;20052;-76
2023/02/06 04:37:28;;;;;;;0.10;0.10;;;;;;;0.23;84.44;103039.19;4898026;29;20459;-77
2023/02/06 04:39:53;;;;;;;0.00;0.00;;;;;;;0.20;84.36;103028.69;4894199;29;20048;-78
2023/02/06 04:42:19;;;;;;;0.00;0.00;;;;;;;0.34;84.93;103052.59;4879383;29;20045;-76
2023/02/06 04:45:11;;;;;;;0.00;0.00;;;;;;;0.33;84.93;103043.63;4893047;29;20027;-77
2023/02/06 04:47:36;;;;;;;0.00;0.00;;;;;;;0.25;84.88;103026.44;4877525;29;20046;-77
2023/02/06 04:50:09;;;;;;;0.10;0.10;;;;;;;0.20;84.33;103031.41;4876717;29;20036;-78
2023/02/06 04:52:35;;;;;;;0.03;0.03;;;;;;;0.24;84.63;103052.53;4880517;29;20028;-77
2023/02/06 04:55:00;;;;;;;0.10;0.10;;;;;;;0.17;85.07;103052.19;4865591;29;20374;-77
2023/02/06 04:57:26;;;;;;;0.10;0.10;;;;;;;0.05;84.44;103025.50;4857297;29;20643;-77
2023/02/06 04:59:51;;;;;;;0.10;0.10;;;;;;;0.11;85.21;103031.19;4886470;29;20043;-77
2023/02/06 05:02:16;;;;;;;0.10;0.10;;;;;;;0.19;85.01;103045.81;4882009;29;20387;-75
2023/02/06 05:04:42;;;;;;;0.00;0.00;;;;;;;0.17;85.14;103041.41;4878895;29;20068;-77
2023/02/06 05:07:08;;;;;;;0.00;0.00;;;;;;;0.14;84.68;103030.94;4864755;29;20103;-77
2023/02/06 05:09:35;;;;;;;0.05;0.05;;;;;;;0.29;85.70;103060.19;4899271;29;20064;-77
2023/02/06 05:12:13;;;;;;;0.00;0.00;;;;;;;0.13;85.09;103039.13;4875745;29;20115;-77
2023/02/06 05:14:41;;;;;;;0.00;0.00;;;;;;;0.09;85.13;103038.56;4885867;29;20029;-77
2023/02/06 05:17:07;;;;;;;0.00;0.00;;;;;;;0.06;85.34;103033.44;4874270;29;20040;-76
2023/02/06 05:19:32;;;;;;;0.03;0.03;;;;;;;0.05;85.49;103042.50;4874966;29;20032;-74
2023/02/06 05:22:11;;;;;;;0.00;0.00;;;;;;;-0.02;85.31;103046.69;4884791;29;20032;-77
2023/02/06 05:24:39;;;;;;;0.00;0.00;;;;;;;-0.14;86.08;103045.06;4894251;29;20029;-77
2023/02/06 05:27:07;;;;;;;0.00;0.00;;;;;;;-0.28;86.33;103041.69;4888249;29;20060;-77
2023/02/06 05:29:35;;;;;;;0.00;0.00;;;;;;;-0.31;86.01;103046.50;4858921;29;20039;-77
2023/02/06 05:32:00;;;;;;;0.00;0.00;;;;;;;-0.29;85.76;103048.06;4838615;29;20037;-77
2023/02/06 05:34:29;;;;;;;0.00;0.00;;;;;;;-0.32;86.68;103031.31;4869351;29;20039;-78
2023/02/06 05:36:54;;;;;;;0.00;0.00;;;;;;;-0.26;86.57;103039.75;4886183;29;20467;-77
2023/02/06 05:39:30;;;;;;;;;;;;;;;;;;;;;
2023/02/06 05:41:56;;;;;;;0.00;0.00;;;;;;;-0.12;86.57;103043.09;4891779;29;20116;-80
2023/02/06 05:44:21;;;;;;;0.00;0.00;;;;;;;-0.26;85.87;103018.22;4883610;29;20038;-78
2023/02/06 05:46:49;;;;;;;0.10;0.10;;;;;;;-0.22;85.62;103025.06;4886473;29;20036;-79
2023/02/06 05:49:25;;;;;;;;;;;;;;;;;;;;;
2023/02/06 05:51:53;;;;;;;0.10;0.10;;;;;;;-0.12;85.65;103045.78;4886847;29;20046;-79
2023/02/06 05:54:18;;;;;;;0.00;0.00;;;;;;;-0.30;85.70;103021.31;4881141;29;20043;-80
2023/02/06 05:56:44;;;;;;;0.10;0.10;;;;;;;-0.20;86.44;103039.22;4871307;29;20036;-80
2023/02/06 05:59:17;;;;;;;0.00;0.00;;;;;;;-0.34;86.16;103015.31;4885655;29;20036;-79
2023/02/06 06:01:50;;;;;;;0.10;0.10;;;;;;;-0.22;85.63;103019.69;4887816;29;20465;-79
2023/02/06 06:04:16;;;;;;;0.10;0.10;;;;;;;-0.17;85.94;103021.13;4900313;29;20048;-79
2023/02/06 06:06:46;;;;;;;0.00;0.00;;;;;;;-0.11;86.33;103037.56;4884641;29;20047;-79
2023/02/06 06:09:15;;;;;;;0.00;0.00;;;;;;;-0.27;85.37;103011.13;4875815;29;20040;-79
2023/02/06 06:11:43;;;;;;;0.00;0.00;;;;;;;-0.29;85.34;103012.25;4887523;29;20029;-79
2023/02/06 06:14:12;;;;;;;0.00;0.00;;;;;;;-0.21;85.42;103015.97;4898979;29;20057;-79
2023/02/06 06:16:39;;;;;;;0.10;0.10;;;;;;;-0.04;85.33;103036.06;4901253;29;20028;-81
2023/02/06 06:19:05;;;;;;;0.10;0.10;;;;;;;-0.18;85.86;103022.94;4857750;29;20060;-78
2023/02/06 06:21:32;;;;;;;0.00;0.00;;;;;;;-0.14;85.25;103032.47;4886617;29;20021;-79
2023/02/06 06:24:10;;;;;;;;;;;;;;;;;;;;;
2023/02/06 06:26:36;;;;;;;0.00;0.00;;;;;;;-0.19;85.13;103027.47;4904955;29;20108;-78
2023/02/06 06:29:22;;;;;;;0.10;0.10;;;;;;;-0.02;84.84;103050.22;4857794;29;20036;-78
2023/02/06 06:31:52;;;;;;;0.00;0.00;;;;;;;0.02;85.33;103058.91;4876346;29;20387;-78
2023/02/06 06:34:26;;;;;;;0.10;0.10;;;;;;;-0.19;85.86;103035.56;4877714;29;20044;-79
2023/02/06 06:37:39;;;;;;;;;;;;;;;;;;;;;
2023/02/06 06:40:34;;;;;;;0.00;0.00;;;;;;;-0.62;85.18;102996.16;4890463;29;20100;-80
2023/02/06 06:43:12;;;;;;;;;;;;;;;;;;;;;
2023/02/06 06:45:44;;;;;;;0.10;0.10;;;;;;;-0.49;85.58;103059.66;4901534;29;20088;-79
2023/02/06 06:48:36;;;;;;;0.10;0.10;;;;;;;-0.78;86.66;103033.34;4865203;29;20048;-78
2023/02/06 06:51:03;;;;;;;0.00;0.00;;;;;;;-0.92;87.23;103038.03;4878749;29;20037;-79
2023/02/06 06:53:39;;;;;;;0.00;0.00;;;;;;;-1.01;86.84;103038.78;4865406;29;20037;-79
2023/02/06 06:56:25;;;;;;;0.10;0.10;;;;;;;-1.14;87.69;103038.06;4883669;29;20092;-79
2023/02/06 06:58:54;;;;;;;0.00;0.00;;;;;;;-1.27;86.79;103028.31;4891408;29;20040;-81
2023/02/06 07:01:19;;;;;;;0.00;0.00;;;;;;;-1.28;87.43;103031.97;4876461;29;20084;-77
2023/02/06 07:03:47;;;;;;;0.00;0.00;;;;;;;-1.31;87.38;103032.22;4882444;29;20036;-77
2023/02/06 07:06:13;;;;;;;0.00;0.00;;;;;;;-1.36;87.25;103028.22;4915035;29;20071;-77
2023/02/06 07:08:40;;;;;;;0.00;0.00;;;;;;;-1.38;87.36;103031.03;4896337;29;20023;-77
2023/02/06 07:11:16;;;;;;;0.00;0.00;;;;;;;-1.42;87.33;103018.81;4910176;29;20459;-80
2023/02/06 07:13:54;;;;;;;0.00;0.00;;;;;;;-1.50;88.37;103018.59;4909123;29;20032;-81
2023/02/06 07:16:23;;;;;;;0.00;0.00;;;;;;;-1.49;87.73;103034.56;4899754;29;20036;-81
2023/02/06 07:18:48;;;;;;;0.00;0.00;;;;;;;-1.47;88.87;103035.28;4916590;29;20596;-83
2023/02/06 07:21:19;;;;;;;0.00;0.00;;;;;;;-1.47;88.58;103032.59;4903028;29;20028;-82
2023/02/06 07:23:44;;;;;;;0.00;0.00;;;;;;;-1.53;88.33;103032.22;4901459;29;20039;-84
2023/02/06 07:26:10;;;;;;;0.00;0.00;;;;;;;-1.67;89.39;103004.66;4918044;29;20024;-84
2023/02/06 07:28:35;;;;;;;0.00;0.00;;;;;;;-1.65;88.58;103009.91;4905281;29;20043;-82
2023/02/06 07:31:03;;;;;;;0.00;0.00;;;;;;;-1.68;88.84;103012.84;4914014;29;20112;-85
2023/02/06 07:33:29;;;;;;;0.00;0.00;;;;;;;-1.67;89.69;103009.19;4904594;29;20016;-83
2023/02/06 07:35:55;;;;;;;0.00;0.00;;;;;;;-1.78;88.89;102997.47;4900937;29;20036;-83
2023/02/06 07:38:28;;;;;;;0.00;0.00;;;;;;;-1.84;90.09;102997.97;4920700;29;20498;-83
2023/02/06 07:41:17;;;;;;;0.00;0.00;;;;;;;-1.65;90.15;103029.56;4891125;29;20032;-83
2023/02/06 07:43:45;;;;;;;0.00;0.00;;;;;;;-1.83;89.75;102993.44;4915342;29;20442;-83
2023/02/06 07:46:23;;;;;;;;;;;;;;;;;;;;;
2023/02/06 07:49:11;;;;;;;0.10;0.10;;;;;;;-2.00;90.18;102987.59;4918410;29;20147;-85
2023/02/06 07:51:49;;;;;;;0.00;0.00;;;;;;;-1.77;90.46;103035.88;4915947;29;20024;-81
2023/02/06 07:54:15;;;;;;;0.00;0.00;;;;;;;-1.87;90.32;103018.78;4891155;29;20032;-83
2023/02/06 07:56:40;;;;;;;0.10;0.10;;;;;;;-1.90;90.77;103019.03;4901329;29;20024;-82
2023/02/06 07:59:26;;;;;;;0.00;0.00;;;;;;;-2.01;91.20;103007.31;4897664;29;20036;-81
2023/02/06 08:01:52;;;;;;;0.08;0.08;;;;;;;-2.00;91.01;102998.31;4898217;29;20537;-80
2023/02/06 08:04:17;;;;;;;0.00;0.00;;;;;;;-1.92;90.65;103011.13;4883758;29;20052;-80
2023/02/06 08:06:47;;;;;;;0.10;0.10;;;;;;;-1.99;91.34;102988.44;4894496;29;20748;-80
2023/02/06 08:09:16;;;;;;;0.10;0.10;;;;;;;-1.84;90.99;103010.50;4892405;29;20502;-77
2023/02/06 08:11:41;;;;;;;0.10;0.10;;;;;;;-1.89;90.74;102989.41;4895741;29;20040;-79
2023/02/06 08:14:07;;;;;;;0.10;0.10;;;;;;;-1.81;90.54;102999.53;4873985;29;20047;-78
2023/02/06 08:16:35;;;;;;;0.00;0.00;;;;;;;-1.68;90.30;102997.63;4854149;29;20044;-81
2023/02/06 08:19:12;;;;;;;0.00;0.00;;;;;;;-1.61;90.58;102998.84;4875132;29;20068;-78
2023/02/06 08:21:38;;;;;;;0.05;0.05;;;;;;;-1.39;89.91;103007.81;4879304;29;20040;-78
2023/02/06 08:24:03;;;;;;;0.00;0.00;;;;;;;-1.26;91.00;103003.16;4874478;29;20033;-77
2023/02/06 08:26:31;;;;;;;0.10;0.10;;;;;;;-1.18;90.12;102988.25;4862801;29;20108;-77
2023/02/06 08:29:01;;;;;;;0.10;0.10;;;;;;;-1.11;89.69;102976.03;4878218;29;20032;-77
2023/02/06 08:31:33;;;;;;;0.10;0.10;;;;;;;-0.87;89.30;102981.22;4876370;29;20020;-78
2023/02/06 08:34:01;;;;;;;0.08;0.08;;;;;;;-0.84;88.65;102958.63;4876539;29;20036;-79
2023/02/06 08:36:31;;;;;;;0.10;0.10;;;;;;;-0.49;89.42;102985.22;4877650;29;20510;-80
2023/02/06 08:38:57;;;;;;;0.10;0.10;;;;;;;-0.48;89.14;102943.06;4874523;29;20372;-79
2023/02/06 08:56:07;;;;;;;0.00;0.00;;;;;;;1.93;87.80;102962.69;4788439;29;20082;-78
2023/02/06 08:58:37;;;;;;;0.00;0.00;;;;;;;5.15;85.88;102969.63;4806064;29;20077;-78
2023/02/06 09:01:13;;;;;;;0.00;0.00;;;;;;;9.22;69.38;102991.06;4878175;29;20040;-78
2023/02/06 09:03:38;;;;;;;0.05;0.05;;;;;;;11.86;57.43;102970.00;4864856;29;20091;-80
2023/02/06 09:06:04;;;;;;;0.00;0.00;;;;;;;13.61;52.04;102984.69;4883301;29;20499;-78
2023/02/06 09:08:30;;;;;;;0.10;0.10;;;;;;;15.18;47.83;102994.34;4869374;29;20384;-78
2023/02/06 09:11:04;;;;;;;0.00;0.00;;;;;;;16.27;44.30;102986.00;4859246;29;20436;-79
2023/02/06 09:13:39;;;;;;;;;;;;;;;;;;;;;
2023/02/06 09:16:05;;;;;;;0.00;0.00;;;;;;;18.36;40.05;102986.41;4857118;29;20029;-80
2023/02/06 09:18:31;;;;;;;0.00;0.00;;;;;;;20.07;37.84;102996.16;4872737;29;20448;-81
2023/02/06 09:21:10;;;;;;;0.00;0.00;;;;;;;21.48;35.85;102976.88;4872921;29;20037;-78
2023/02/06 09:23:48;;;;;;;0.00;0.00;;;;;;;22.71;34.17;102984.16;4873737;29;20048;-80
2023/02/06 09:26:18;;;;;;;0.00;0.00;;;;;;;23.23;33.48;102993.06;4884432;29;20491;-79
2023/02/06 09:28:45;;;;;;;0.10;0.10;;;;;;;23.66;32.31;102971.75;4873831;29;20033;-79
2023/02/06 09:31:13;;;;;;;0.00;0.00;;;;;;;24.70;31.84;102985.41;4867869;29;20972;-79
2023/02/06 09:33:39;;;;;;;0.00;0.00;;;;;;;25.19;31.00;102980.50;4857455;29;20411;-78
2023/02/06 09:36:06;;;;;;;0.00;0.00;;;;;;;25.47;29.98;102978.66;4838334;29;20033;-78
2023/02/06 09:38:32;;;;;;;0.00;0.00;;;;;;;25.84;28.67;102973.25;4889775;29;20071;-79
2023/02/06 09:41:01;;;;;;;0.00;0.00;;;;;;;26.27;28.61;102961.78;4885957;29;20048;-79
2023/02/06 09:43:29;;;;;;;0.00;0.00;;;;;;;26.88;27.62;102984.84;4887649;29;20055;-77
2023/02/06 09:46:13;;;;;;;0.00;0.00;;;;;;;27.57;27.57;102969.72;4876166;29;20115;-78
2023/02/06 09:48:41;;;;;;;0.00;0.00;;;;;;;28.36;26.77;102959.63;4878299;29;20028;-78
2023/02/06 09:51:42;;;;;;;0.00;0.00;;;;;;;29.55;26.53;102961.50;4874256;29;20132;-78
2023/02/06 09:54:16;;;;;;;0.00;0.00;;;;;;;30.41;25.48;102973.59;4810968;29;20074;-79
2023/02/06 09:56:56;;;;;;;0.00;0.00;;;;;;;31.06;24.84;102962.00;4874491;29;20039;-78
2023/02/06 09:59:34;;;;;;;0.00;0.00;;;;;;;31.50;23.82;102962.38;4889390;29;20043;-78
2023/02/06 10:02:16;;;;;;;0.00;0.00;;;;;;;32.02;23.09;102971.41;4868202;29;20095;-78
2023/02/06 10:05:01;;;;;;;0.00;0.00;;;;;;;32.69;22.91;102971.16;4879693;29;20036;-79
2023/02/06 10:08:12;;;;;;;0.00;0.00;;;;;;;33.40;22.40;102949.75;4894403;29;20095;-78
2023/02/06 10:10:52;;;;;;;0.00;0.00;;;;;;;34.25;21.78;102952.28;4866211;29;20040;-77
2023/02/06 10:14:05;;;;;;;0.00;0.00;;;;;;;34.99;21.29;102958.38;4906298;29;20423;-78
2023/02/06 10:16:39;;;;;;;0.00;0.00;;;;;;;35.60;20.72;102966.09;4841840;29;20495;-78
2023/02/06 10:19:16;;;;;;;0.00;0.00;;;;;;;35.93;19.96;102960.97;4888502;29;20488;-78
2023/02/06 10:21:57;;;;;;;0.00;0.00;;;;;;;36.32;19.58;102950.19;4909245;29;20026;-79
2023/02/06 10:24:35;;;;;;;0.00;0.00;;;;;;;36.50;19.45;102958.19;4891097;29;21111;-81
2023/02/06 10:27:12;;;;;;;0.00;0.00;;;;;;;37.03;19.05;102943.81;4894911;29;20024;-79
2023/02/06 10:29:40;;;;;;;0.00;0.00;;;;;;;37.48;18.18;102949.56;4907667;29;20047;-78
2023/02/06 10:32:23;;;;;;;0.00;0.00;;;;;;;38.06;17.63;102959.44;4911046;29;20099;-81
2023/02/06 10:35:10;;;;;;;0.00;0.00;;;;;;;38.30;17.13;102962.06;4894728;29;20032;-79
2023/02/06 10:38:04;;;;;;;0.00;0.00;;;;;;;38.99;16.82;102961.19;4895510;29;20103;-77
2023/02/06 10:41:01;;;;;;;0.00;0.00;;;;;;;39.54;16.50;102950.66;4913770;29;20498;-78
2023/02/06 10:43:52;;;;;;;0.00;0.00;;;;;;;39.96;15.85;102952.69;4896955;29;20079;-77
2023/02/06 10:46:29;;;;;;;0.00;0.00;;;;;;;40.32;15.80;102948.97;4890623;29;20036;-78
2023/02/06 10:49:16;;;;;;;0.00;0.00;;;;;;;40.59;15.78;102937.00;4897256;29;20139;-81
2023/02/06 10:51:47;;;;;;;0.00;0.00;;;;;;;40.92;15.26;102931.94;4893230;29;20031;-79
2023/02/06 10:54:40;;;;;;;0.00;0.00;;;;;;;41.10;14.94;102944.13;4889360;29;20394;-79
2023/02/06 10:57:17;;;;;;;0.00;0.00;;;;;;;41.42;14.71;102948.84;4908566;29;20088;-80
2023/02/06 10:59:46;;;;;;;0.00;0.00;;;;;;;41.79;14.44;102955.91;4889514;29;20727;-79
2023/02/06 11:02:18;;;;;;;0.00;0.00;;;;;;;42.14;14.05;102959.66;4893558;29;20415;-79
2023/02/06 11:05:02;;;;;;;0.00;0.00;;;;;;;42.49;13.64;102931.75;4904082;29;20052;-78
2023/02/06 11:07:32;;;;;;;0.00;0.00;;;;;;;43.05;13.21;102927.72;4897114;29;20024;-80
2023/02/06 11:10:00;;;;;;;0.00;0.00;;;;;;;43.29;12.95;102933.53;4896516;29;20444;-79
2023/02/06 11:12:32;;;;;;;0.00;0.00;;;;;;;43.41;12.52;102938.66;4896658;29;20091;-78
2023/02/06 11:15:05;;;;;;;0.00;0.00;;;;;;;42.01;12.71;102932.72;4897769;29;20116;-77
2023/02/06 11:17:30;;;;;;;0.00;0.00;;;;;;;39.66;13.46;102915.91;4914892;29;21280;-80
2023/02/06 11:20:20;;;;;;;0.00;0.00;;;;;;;37.09;13.80;102912.06;4886782;29;20042;-79
2023/02/06 11:22:49;;;;;;;0.00;0.00;;;;;;;36.00;15.68;102916.34;4897022;29;20136;-77
2023/02/06 11:25:49;;;;;;;0.00;0.00;;;;;;;36.12;15.51;102917.34;4909262;29;20028;-77
2023/02/06 11:28:21;;;;;;;0.00;0.00;;;;;;;37.57;15.01;102897.88;4919452;29;20052;-80
2023/02/06 11:31:15;;;;;;;;;;;;;;;;;;;;;
2023/02/06 11:33:44;;;;;;;0.00;0.00;;;;;;;39.13;14.30;102913.84;4913934;29;20297;-79
2023/02/06 11:36:29;;;;;;;0.00;0.00;;;;;;;39.02;14.31;102917.47;4897017;29;20040;-79
2023/02/06 11:39:14;;;;;;;0.00;0.00;;;;;;;38.50;14.13;102894.00;4897964;29;20087;-80
2023/02/06 11:41:58;;;;;;;0.00;0.00;;;;;;;39.44;13.45;102893.00;4895712;29;20046;-80
2023/02/06 11:44:33;;;;;;;0.00;0.00;;;;;;;39.34;13.32;102893.84;4892889;29;20032;-79
2023/02/06 11:47:29;;;;;;;0.00;0.00;;;;;;;40.29;13.26;102893.28;4912987;29;20660;-81
2023/02/06 11:49:55;;;;;;;0.00;0.00;;;;;;;41.96;12.43;102867.91;4892813;29;20055;-82
2023/02/06 11:52:32;;;;;;;0.00;0.00;;;;;;;43.41;11.38;102872.44;4898021;29;20075;-80
2023/02/06 11:55:01;;;;;;;0.00;0.00;;;;;;;44.04;10.82;102873.75;4910797;29;20028;-79
2023/02/06 11:57:52;;;;;;;0.00;0.00;;;;;;;44.50;11.20;102889.25;4896260;29;20044;-79
2023/02/06 12:00:21;;;;;;;0.00;0.00;;;;;;;43.69;10.74;102879.75;4907329;29;20039;-80
2023/02/06 12:02:52;;;;;;;0.00;0.00;;;;;;;43.29;11.67;102865.25;4897917;29;20034;-81
2023/02/06 12:05:19;;;;;;;0.00;0.00;;;;;;;43.12;11.91;102852.78;4898738;29;20514;-79
2023/02/06 12:07:52;;;;;;;0.00;0.00;;;;;;;42.40;11.54;102850.16;4873336;29;20032;-80
2023/02/06 12:10:27;;;;;;;0.00;0.00;;;;;;;42.68;11.27;102837.44;4876004;29;20039;-78
2023/02/06 12:13:13;;;;;;;0.00;0.00;;;;;;;43.45;11.31;102832.91;4891242;29;20040;-79
2023/02/06 12:15:47;;;;;;;0.00;0.00;;;;;;;42.03;10.06;102821.88;4887635;29;20535;-79
2023/02/06 12:18:17;;;;;;;0.00;0.00;;;;;;;41.68;10.72;102825.97;4887337;29;20035;-79
2023/02/06 12:21:26;;;;;;;0.00;0.00;;;;;;;42.77;10.50;102808.94;4882995;29;20024;-77
2023/02/06 12:24:00;;;;;;;0.00;0.00;;;;;;;42.51;9.52;102825.75;4893283;29;20490;-80
2023/02/06 12:26:30;;;;;;;0.00;0.00;;;;;;;42.47;10.59;102802.00;4887179;29;20028;-80
2023/02/06 12:29:08;;;;;;;0.00;0.00;;;;;;;43.52;10.43;102821.25;4858060;29;20035;-78
2023/02/06 12:31:40;;;;;;;0.00;0.00;;;;;;;42.98;10.51;102804.91;4882982;29;20029;-79
2023/02/06 12:34:18;;;;;;;0.00;0.00;;;;;;;43.00;10.27;102813.09;4887718;29;20024;-76
2023/02/06 12:37:14;;;;;;;0.00;0.00;;;;;;;41.89;10.26;102798.25;4876613;29;20033;-78